createdAt,value
2018-08-24T00:00:06.252Z,9.23
2018-08-24T00:02:35.482Z,9.78
2018-08-24T00:05:04.692Z,9.78
2018-08-24T00:07:33.861Z,9.13
2018-08-24T00:10:03.048Z,9.00
2018-08-24T00:12:32.393Z,9.28
2018-08-24T00:15:01.597Z,8.85
2018-08-24T00:17:31.741Z,8.48
2018-08-24T00:20:01.681Z,8.15
2018-08-24T00:22:31.645Z,8.78
2018-08-24T00:25:00.888Z,8.50
2018-08-24T00:27:30.040Z,9.13
2018-08-24T00:29:59.200Z,8.50
2018-08-24T00:32:28.475Z,8.25
2018-08-24T00:34:57.699Z,8.48
2018-08-24T00:37:27.471Z,8.70
2018-08-24T00:39:56.632Z,8.23
2018-08-24T00:42:25.797Z,8.60
2018-08-24T00:44:54.960Z,8.40
2018-08-24T00:47:24.196Z,8.65
2018-08-24T00:49:53.350Z,8.83
2018-08-24T00:52:21.975Z,8.83
2018-08-24T00:54:50.569Z,8.73
2018-08-24T00:57:19.270Z,9.63
2018-08-24T00:59:47.932Z,9.73
2018-08-24T01:02:16.545Z,9.07
2018-08-24T01:04:45.136Z,9.03
2018-08-24T01:07:14.773Z,9.93
2018-08-24T01:09:43.943Z,9.17
2018-08-24T01:12:15.584Z,10.17
2018-08-24T01:14:46.343Z,9.63
2018-08-24T01:17:20.210Z,8.60
2018-08-24T01:19:49.224Z,9.23
2018-08-24T01:22:18.184Z,9.00
2018-08-24T01:24:46.763Z,9.40
2018-08-24T01:27:15.374Z,9.20
2018-08-24T01:29:44.296Z,9.63
2018-08-24T01:32:14.684Z,8.60
2018-08-24T01:34:43.368Z,7.57
2018-08-24T01:37:11.935Z,8.73
2018-08-24T01:39:40.574Z,8.03
2018-08-24T01:42:09.144Z,9.57
2018-08-24T01:44:37.804Z,9.37
2018-08-24T01:47:06.840Z,9.33
2018-08-24T01:49:35.685Z,9.27
2018-08-24T01:52:04.800Z,9.30
2018-08-24T01:54:35.990Z,9.70
2018-08-24T01:57:04.725Z,9.13
2018-08-24T01:59:33.460Z,9.50
2018-08-24T02:02:02.195Z,10.10
2018-08-24T02:04:32.954Z,9.90
2018-08-24T02:07:01.718Z,8.43
2018-08-24T02:09:30.596Z,9.47
2018-08-24T02:11:59.580Z,9.47
2018-08-24T02:14:33.620Z,9.37
2018-08-24T02:17:02.511Z,8.27
2018-08-24T02:19:36.340Z,8.57
2018-08-24T02:22:10.085Z,8.37
2018-08-24T02:24:38.760Z,8.77
2018-08-24T02:27:07.592Z,8.60
2018-08-24T02:29:38.476Z,9.03
2018-08-24T02:32:07.772Z,8.83
2018-08-24T02:34:36.387Z,8.53
2018-08-24T02:37:05.087Z,9.20
2018-08-24T02:39:35.952Z,9.03
2018-08-24T02:42:04.543Z,9.43
2018-08-24T02:44:33.109Z,9.43
2018-08-24T02:47:01.976Z,9.87
2018-08-24T02:49:30.586Z,9.87
2018-08-24T02:51:59.452Z,9.53
2018-08-24T02:54:28.064Z,9.90
2018-08-24T02:56:56.666Z,10.30
2018-08-24T02:59:25.412Z,9.23
2018-08-24T03:01:53.993Z,10.30
2018-08-24T03:04:22.652Z,11.37
2018-08-24T03:06:51.348Z,10.13
2018-08-24T03:09:21.755Z,10.17
2018-08-24T03:11:51.240Z,9.97
2018-08-24T03:14:19.969Z,10.83
2018-08-24T03:16:53.996Z,10.10
2018-08-24T03:19:22.659Z,10.53
2018-08-24T03:21:51.348Z,10.53
2018-08-24T03:24:19.986Z,10.73
2018-08-24T03:26:48.701Z,10.83
2018-08-24T03:29:17.341Z,11.20
2018-08-24T03:31:47.021Z,10.20
2018-08-24T03:34:15.616Z,10.67
2018-08-24T03:36:44.244Z,10.20
2018-08-24T03:39:12.904Z,10.60
2018-08-24T03:41:41.796Z,10.87
2018-08-24T03:44:10.439Z,10.77
2018-08-24T03:46:39.069Z,11.23
2018-08-24T03:49:07.673Z,11.70
2018-08-24T03:51:36.240Z,11.20
2018-08-24T03:54:09.224Z,11.63
2018-08-24T03:56:38.243Z,12.13
2018-08-24T03:59:06.821Z,11.27
2018-08-24T04:01:35.460Z,11.37
2018-08-24T04:04:04.323Z,11.93
2018-08-24T04:06:32.960Z,11.63
2018-08-24T04:09:01.534Z,11.47
2018-08-24T04:11:30.212Z,11.37
2018-08-24T04:13:58.867Z,11.53
2018-08-24T04:16:27.696Z,11.07
2018-08-24T04:18:56.310Z,11.33
2018-08-24T04:21:24.892Z,11.57
2018-08-24T04:23:53.485Z,11.10
2018-08-24T04:26:22.188Z,12.27
2018-08-24T04:28:50.805Z,11.97
2018-08-24T04:31:19.425Z,11.90
2018-08-24T04:33:48.143Z,11.97
2018-08-24T04:36:16.712Z,11.40
2018-08-24T04:38:45.365Z,10.73
2018-08-24T04:41:14.315Z,11.37
2018-08-24T04:43:42.993Z,11.13
2018-08-24T04:46:11.648Z,10.97
2018-08-24T04:48:40.303Z,11.10
2018-08-24T04:51:08.934Z,11.43
2018-08-24T04:53:37.748Z,10.00
2018-08-24T04:56:07.636Z,10.68
2018-08-24T04:58:36.403Z,10.30
2018-08-24T05:01:05.022Z,10.10
2018-08-24T05:03:34.277Z,10.65
2018-08-24T05:06:03.289Z,10.27
2018-08-24T05:08:32.734Z,10.18
2018-08-24T05:11:01.969Z,10.28
2018-08-24T05:13:31.535Z,10.45
2018-08-24T05:16:01.411Z,10.28
2018-08-24T05:18:30.576Z,9.95
2018-08-24T05:20:59.800Z,9.58
2018-08-24T05:23:28.968Z,10.00
2018-08-24T05:25:58.108Z,10.00
2018-08-24T05:28:27.330Z,10.05
2018-08-24T05:30:56.722Z,10.40
2018-08-24T05:33:26.137Z,10.58
2018-08-24T05:35:55.303Z,10.55
2018-08-24T05:38:24.476Z,13.32
2018-08-24T05:40:53.700Z,12.40
2018-08-24T05:43:22.884Z,13.08
2018-08-24T05:45:52.144Z,12.13
2018-08-24T05:48:21.498Z,12.07
2018-08-24T05:50:50.709Z,10.30
2018-08-24T05:53:19.868Z,9.65
2018-08-24T05:55:49.049Z,10.00
2018-08-24T05:58:18.462Z,9.55
2018-08-24T06:00:47.625Z,8.98
2018-08-24T06:03:16.831Z,8.65
2018-08-24T06:05:51.303Z,8.83
2018-08-24T06:08:20.594Z,7.90
2018-08-24T06:10:49.916Z,7.92
2018-08-24T06:13:19.921Z,7.95
2018-08-24T06:15:50.194Z,7.53
2018-08-24T06:18:19.581Z,9.00
2018-08-24T06:20:48.719Z,7.80
2018-08-24T06:23:17.995Z,7.67
2018-08-24T06:25:46.912Z,8.00
2018-08-24T06:28:15.852Z,7.20
2018-08-24T06:30:44.732Z,7.87
2018-08-24T06:33:13.821Z,7.50
2018-08-24T06:35:42.680Z,7.17
2018-08-24T06:38:11.559Z,7.63
2018-08-24T06:40:41.070Z,7.67
2018-08-24T06:43:10.121Z,7.67
2018-08-24T06:45:39.003Z,6.80
2018-08-24T06:48:07.880Z,7.93
2018-08-24T06:50:36.766Z,7.10
2018-08-24T06:53:05.860Z,7.07
2018-08-24T06:55:34.909Z,7.17
2018-08-24T06:58:04.199Z,6.87
2018-08-24T07:00:33.868Z,6.30
2018-08-24T07:03:03.157Z,6.87
2018-08-24T07:05:32.482Z,7.00
2018-08-24T07:08:01.426Z,6.70
2018-08-24T07:10:30.557Z,6.60
2018-08-24T07:12:59.602Z,6.40
2018-08-24T07:15:28.710Z,6.40
2018-08-24T07:18:03.764Z,6.60
2018-08-24T07:20:32.904Z,6.33
2018-08-24T07:23:01.915Z,5.80
2018-08-24T07:25:30.784Z,5.97
2018-08-24T07:27:59.789Z,5.93
2018-08-24T07:30:28.799Z,5.70
2018-08-24T07:32:57.760Z,5.60
2018-08-24T07:35:26.698Z,6.10
2018-08-24T07:37:55.646Z,5.90
2018-08-24T07:40:24.560Z,6.50
2018-08-24T07:42:53.483Z,6.40
2018-08-24T07:45:22.357Z,6.43
2018-08-24T07:47:51.249Z,5.30
2018-08-24T07:50:20.153Z,6.27
2018-08-24T07:52:49.076Z,6.13
2018-08-24T07:55:17.984Z,5.97
2018-08-24T07:57:46.863Z,6.60
2018-08-24T08:00:15.804Z,5.50
2018-08-24T08:02:45.238Z,6.00
2018-08-24T08:05:14.561Z,6.00
2018-08-24T08:07:43.791Z,5.50
2018-08-24T08:10:12.724Z,5.93
2018-08-24T08:12:41.644Z,5.70
2018-08-24T08:15:11.487Z,5.40
2018-08-24T08:17:41.781Z,5.70
2018-08-24T08:20:11.144Z,5.53
2018-08-24T08:22:40.204Z,5.20
2018-08-24T08:25:09.172Z,5.37
2018-08-24T08:27:38.105Z,5.33
2018-08-24T08:30:07.472Z,6.03
2018-08-24T08:32:36.436Z,6.30
2018-08-24T08:35:06.325Z,6.62
2018-08-24T08:37:35.508Z,7.50
2018-08-24T08:40:04.808Z,8.28
2018-08-24T08:42:33.972Z,8.70
2018-08-24T08:45:03.248Z,7.90
2018-08-24T08:47:32.513Z,8.35
2018-08-24T08:50:01.933Z,8.13
2018-08-24T08:52:31.093Z,8.13
2018-08-24T08:55:00.244Z,8.30
2018-08-24T08:57:29.646Z,7.78
2018-08-24T08:59:58.908Z,7.67
2018-08-24T09:02:28.136Z,7.97
2018-08-24T09:04:57.295Z,7.75
2018-08-24T09:07:26.737Z,7.80
2018-08-24T09:09:56.504Z,8.00
2018-08-24T09:12:25.692Z,7.42
2018-08-24T09:14:55.012Z,8.05
2018-08-24T09:17:29.575Z,8.65
2018-08-24T09:20:04.070Z,7.85
2018-08-24T09:23:38.243Z,6.83
2018-08-24T09:26:12.953Z,6.95
2018-08-24T09:28:42.352Z,7.37
2018-08-24T09:31:18.092Z,6.85
2018-08-24T09:33:47.881Z,7.67
2018-08-24T09:36:19.453Z,7.37
2018-08-24T09:38:49.542Z,6.22
2018-08-24T09:41:18.776Z,6.12
2018-08-24T09:43:53.313Z,6.37
2018-08-24T09:46:27.847Z,6.53
2018-08-24T09:49:02.394Z,5.95
2018-08-24T09:51:31.887Z,5.53
2018-08-24T09:54:01.674Z,5.90
2018-08-24T09:56:31.976Z,5.70
2018-08-24T09:59:01.570Z,5.60
2018-08-24T10:01:35.998Z,5.92
2018-08-24T10:04:10.606Z,5.33
2018-08-24T10:06:45.062Z,5.97
2018-08-24T10:09:15.389Z,6.33
2018-08-24T10:11:44.664Z,6.28
2018-08-24T10:14:13.845Z,5.72
2018-08-24T10:16:43.344Z,5.50
2018-08-24T10:19:13.736Z,6.17
2018-08-24T10:21:43.104Z,6.60
2018-08-24T10:24:12.427Z,5.95
2018-08-24T10:26:41.692Z,5.67
2018-08-24T10:29:10.919Z,5.85
2018-08-24T10:31:40.256Z,5.70
2018-08-24T10:34:09.453Z,5.22
2018-08-24T10:36:38.802Z,5.20
2018-08-24T10:39:10.351Z,5.60
2018-08-24T10:41:39.928Z,5.37
2018-08-24T10:44:09.242Z,5.12
2018-08-24T11:00:19.156Z,6.00
2018-08-24T11:02:48.325Z,5.37
2018-08-24T11:05:17.546Z,5.53
2018-08-24T11:07:46.802Z,5.62
2018-08-24T11:10:16.213Z,5.53
2018-08-24T11:12:45.675Z,5.47
2018-08-24T11:15:14.857Z,5.53
2018-08-24T11:17:49.513Z,5.92
2018-08-24T11:20:18.759Z,5.58
2018-08-24T11:22:48.130Z,5.75
2018-08-24T11:25:17.310Z,5.42
2018-08-24T11:27:46.563Z,6.05
2018-08-24T11:30:15.820Z,5.83
2018-08-24T11:32:45.059Z,5.50
2018-08-24T11:35:14.329Z,5.47
2018-08-24T11:37:43.536Z,5.83
2018-08-24T11:40:12.692Z,5.50
2018-08-24T11:42:41.889Z,5.33
2018-08-24T11:45:11.233Z,4.95
2018-08-24T11:47:40.424Z,5.60
2018-08-24T11:50:09.800Z,5.50
2018-08-24T11:52:38.998Z,5.72
2018-08-24T11:55:08.245Z,6.12
2018-08-24T11:57:37.411Z,5.47
2018-08-24T12:00:06.836Z,6.17
2018-08-24T12:02:36.032Z,5.60
2018-08-24T12:05:05.684Z,5.67
2018-08-24T12:07:34.983Z,5.50
2018-08-24T12:10:04.756Z,6.12
2018-08-24T12:12:34.034Z,5.83
2018-08-24T12:15:03.410Z,5.58
2018-08-24T12:17:35.432Z,5.62
2018-08-24T12:20:05.837Z,5.80
2018-08-24T12:22:35.658Z,5.50
2018-08-24T12:25:05.443Z,5.55
2018-08-24T12:27:34.760Z,6.33
2018-08-24T12:30:04.154Z,6.87
2018-08-24T12:32:33.368Z,8.30
2018-08-24T12:35:02.752Z,7.40
2018-08-24T12:37:36.212Z,7.15
2018-08-24T12:40:05.741Z,6.90
2018-08-24T12:42:34.894Z,7.22
2018-08-24T12:45:04.389Z,6.80
2018-08-24T12:47:33.635Z,6.80
2018-08-24T12:50:02.890Z,7.17
2018-08-24T12:52:32.213Z,6.72
2018-08-24T12:55:02.029Z,6.62
2018-08-24T12:57:31.711Z,6.50
2018-08-24T13:00:01.637Z,5.95
2018-08-24T13:02:30.937Z,6.55
2018-08-24T13:05:00.093Z,6.15
2018-08-24T13:07:29.299Z,6.58
2018-08-24T13:09:59.081Z,5.60
2018-08-24T13:12:28.375Z,5.22
2018-08-24T13:14:58.080Z,4.05
2018-08-24T13:17:27.295Z,3.80
2018-08-24T13:19:56.508Z,4.08
2018-08-24T13:22:25.768Z,3.87
2018-08-24T13:24:55.011Z,3.92
2018-08-24T13:27:24.405Z,3.50
2018-08-24T13:29:53.689Z,3.67
2018-08-24T13:32:22.960Z,3.80
2018-08-24T13:34:52.210Z,3.85
2018-08-24T13:37:21.490Z,3.42
2018-08-24T13:39:50.873Z,2.90
2018-08-24T13:42:20.152Z,3.40
2018-08-24T13:44:49.407Z,3.05
2018-08-24T13:47:18.636Z,2.83
2018-08-24T13:49:48.155Z,3.00
2018-08-24T13:52:17.364Z,3.17
2018-08-24T13:54:47.324Z,3.08
2018-08-24T13:57:16.791Z,3.35
2018-08-24T13:59:45.983Z,3.50
2018-08-24T14:02:15.408Z,3.58
2018-08-24T14:04:44.608Z,3.33
2018-08-24T14:07:13.857Z,3.15
2018-08-24T14:09:43.120Z,2.92
2018-08-24T14:12:12.281Z,3.40
2018-08-24T14:14:41.564Z,3.12
2018-08-24T14:17:10.800Z,2.90
2018-08-24T14:19:40.028Z,3.35
2018-08-24T14:22:09.536Z,2.92
2018-08-24T14:24:38.917Z,2.85
2018-08-24T14:27:08.273Z,3.75
2018-08-24T14:29:37.460Z,3.70
2018-08-24T14:32:06.812Z,4.20
2018-08-24T14:34:35.979Z,3.55
2018-08-24T14:37:05.668Z,3.80
2018-08-24T14:39:35.308Z,4.08
2018-08-24T14:42:04.541Z,3.80
2018-08-24T14:44:33.724Z,4.00
2018-08-24T14:47:02.948Z,3.83
2018-08-24T14:49:32.184Z,3.72
2018-08-24T14:52:01.344Z,3.85
2018-08-24T14:54:30.544Z,3.92
2018-08-24T14:57:00.032Z,3.75
2018-08-24T14:59:29.208Z,3.75
2018-08-24T15:01:58.413Z,3.95
2018-08-24T15:04:27.666Z,3.83
2018-08-24T15:06:57.094Z,3.90
2018-08-24T15:09:26.408Z,3.90
2018-08-24T15:11:55.796Z,4.17
2018-08-24T15:14:25.039Z,4.00
2018-08-24T15:16:54.253Z,4.22
2018-08-24T15:19:23.692Z,4.65
2018-08-24T15:21:53.032Z,4.85
2018-08-24T15:24:22.361Z,5.00
2018-08-24T15:26:51.561Z,5.10
2018-08-24T15:29:20.983Z,5.10
2018-08-24T15:31:50.470Z,5.75
2018-08-24T15:34:19.631Z,6.10
2018-08-24T15:36:48.798Z,6.35
2018-08-24T15:39:18.080Z,6.58
2018-08-24T15:41:47.908Z,6.72
2018-08-24T15:44:17.109Z,6.60
2018-08-24T15:46:46.428Z,7.03
2018-08-24T15:49:15.592Z,6.42
2018-08-24T15:51:44.900Z,6.87
2018-08-24T15:54:14.089Z,7.33
2018-08-24T15:56:43.327Z,8.03
2018-08-24T15:59:12.580Z,8.13
2018-08-24T16:01:41.754Z,8.23
2018-08-24T16:04:10.943Z,8.93
2018-08-24T16:06:40.308Z,9.55
2018-08-24T16:09:10.566Z,9.40
2018-08-24T16:11:40.006Z,10.43
2018-08-24T16:14:09.413Z,14.05
2018-08-24T16:16:39.176Z,14.80
2018-08-24T16:19:09.556Z,18.57
2018-08-24T16:21:38.788Z,20.08
2018-08-24T16:24:08.035Z,19.92
2018-08-24T16:26:37.280Z,21.23
2018-08-24T16:29:06.955Z,23.32
2018-08-24T16:31:36.154Z,23.87
2018-08-24T16:34:05.500Z,26.05
2018-08-24T16:36:34.660Z,26.42
2018-08-24T16:39:04.467Z,26.40
2018-08-24T16:41:33.704Z,28.65
2018-08-24T16:44:02.888Z,28.75
2018-08-24T16:46:32.151Z,27.80
2018-08-24T16:49:01.479Z,29.00
2018-08-24T16:51:30.696Z,29.42
2018-08-24T16:53:59.992Z,30.02
2018-08-24T16:56:29.153Z,31.15
2018-08-24T16:58:58.328Z,30.40
2018-08-24T17:01:27.577Z,28.75
2018-08-24T17:03:56.858Z,28.00
2018-08-24T17:06:26.524Z,30.50
2018-08-24T17:08:55.722Z,31.27
2018-08-24T17:11:25.496Z,31.60
2018-08-24T17:13:54.772Z,29.92
2018-08-24T17:16:24.020Z,30.52
2018-08-24T17:18:53.340Z,31.62
2018-08-24T17:21:22.526Z,43.05
2018-08-24T17:23:51.732Z,42.58
2018-08-24T17:26:20.956Z,40.00
2018-08-24T17:28:50.298Z,37.17
2018-08-24T17:31:19.519Z,34.50
2018-08-24T17:33:49.013Z,33.15
2018-08-24T17:36:18.290Z,34.10
2018-08-24T17:38:47.636Z,34.40
2018-08-24T17:41:16.884Z,34.08
2018-08-24T17:43:46.154Z,35.45
2018-08-24T17:46:15.980Z,34.00
2018-08-24T17:48:45.520Z,36.65
2018-08-24T17:51:15.553Z,44.13
2018-08-24T17:53:44.933Z,61.63
2018-08-24T17:56:14.896Z,60.40
2018-08-24T17:58:44.133Z,51.92
2018-08-24T18:01:13.337Z,53.85
2018-08-24T18:03:42.544Z,47.53
2018-08-24T18:06:11.893Z,44.85
2018-08-24T18:08:41.153Z,36.10
2018-08-24T18:11:10.337Z,35.08
2018-08-24T18:13:39.577Z,38.08
2018-08-24T18:16:08.980Z,36.55
2018-08-24T18:18:38.393Z,31.82
2018-08-24T18:21:08.810Z,31.93
2018-08-24T18:23:38.176Z,30.80
2018-08-24T18:26:08.791Z,28.45
2018-08-24T18:28:38.193Z,27.30
2018-08-24T18:31:08.705Z,25.88
2018-08-24T18:33:38.064Z,26.25
2018-08-24T18:36:07.912Z,27.73
2018-08-24T18:38:37.144Z,31.82
2018-08-24T18:41:06.580Z,28.85
2018-08-24T18:43:35.762Z,27.22
2018-08-24T18:46:05.361Z,25.92
2018-08-24T18:48:34.639Z,26.33
2018-08-24T18:51:04.562Z,24.13
2018-08-24T18:53:33.292Z,22.97
2018-08-24T18:56:01.960Z,24.30
2018-08-24T18:58:30.787Z,23.00
2018-08-24T19:00:59.421Z,23.33
2018-08-24T19:03:28.089Z,22.50
2018-08-24T19:05:56.720Z,22.30
2018-08-24T19:08:26.126Z,22.75
2018-08-24T19:11:00.268Z,21.90
2018-08-24T19:13:29.037Z,21.83
2018-08-24T19:15:57.787Z,22.43
2018-08-24T19:18:31.733Z,22.93
2018-08-24T19:21:06.219Z,23.90
2018-08-24T19:23:34.844Z,24.33
2018-08-24T19:26:03.455Z,23.87
2018-08-24T19:28:37.635Z,24.93
2018-08-24T19:31:06.270Z,24.63
2018-08-24T19:33:34.913Z,25.20
2018-08-24T19:36:03.737Z,26.47
2018-08-24T19:38:32.349Z,27.43
2018-08-24T19:41:06.156Z,25.13
2018-08-24T19:43:34.873Z,26.43
2018-08-24T19:46:03.506Z,26.47
2018-08-24T19:48:37.389Z,26.90
2018-08-24T19:51:06.565Z,32.23
2018-08-24T19:53:35.205Z,29.90
2018-08-24T19:56:04.092Z,26.73
2018-08-24T19:58:38.047Z,27.83
2018-08-24T20:01:06.628Z,29.57
2018-08-24T20:03:35.234Z,28.23
2018-08-24T20:06:09.425Z,29.70
2018-08-24T20:08:43.536Z,33.00
2018-08-24T20:11:12.253Z,35.53
2018-08-24T20:13:40.986Z,39.13
2018-08-24T20:16:14.805Z,37.97
2018-08-24T20:18:43.528Z,35.10
2018-08-24T20:21:12.345Z,34.23
2018-08-24T20:23:40.999Z,37.07
2018-08-24T20:26:09.765Z,37.00
2018-08-24T20:28:38.514Z,41.20
2018-08-24T20:31:07.149Z,47.27
2018-08-24T20:33:35.853Z,45.83
2018-08-24T20:36:05.033Z,49.27
2018-08-24T20:38:33.724Z,50.97
2018-08-24T20:41:02.373Z,56.40
2018-08-24T20:43:31.238Z,57.23
2018-08-24T20:46:00.066Z,57.17
2018-08-24T20:48:28.680Z,56.67
2018-08-24T20:50:57.305Z,55.47
2018-08-24T20:53:26.118Z,54.57
2018-08-24T21:16:39.730Z,59.95
2018-08-24T21:19:09.095Z,55.73
2018-08-24T21:21:37.732Z,55.90
2018-08-24T21:24:07.324Z,53.33
2018-08-24T21:26:35.901Z,53.77
2018-08-24T21:29:05.061Z,52.93
2018-08-24T21:31:33.737Z,53.47
2018-08-24T21:34:02.498Z,53.80
2018-08-24T21:36:31.248Z,55.40
2018-08-24T21:38:59.856Z,54.97
2018-08-24T21:41:28.464Z,54.27
2018-08-24T21:43:57.121Z,55.30
2018-08-24T21:46:25.704Z,55.80
2018-08-24T21:48:54.395Z,57.50
2018-08-24T21:51:23.105Z,58.80
2018-08-24T21:53:51.887Z,61.13
2018-08-24T21:56:21.316Z,58.42
2018-08-24T21:58:50.502Z,56.27
2018-08-24T22:01:19.989Z,55.37
2018-08-24T22:03:48.617Z,52.73
2018-08-24T22:06:18.625Z,46.30
2018-08-24T22:08:47.875Z,37.00
2018-08-24T22:11:17.039Z,30.60
2018-08-24T22:13:45.713Z,21.77
2018-08-24T22:16:15.229Z,19.43
2018-08-24T22:18:44.488Z,17.77
2018-08-24T22:21:13.223Z,19.60
2018-08-24T22:23:42.479Z,21.13
2018-08-24T22:26:11.869Z,19.70
2018-08-24T22:28:41.903Z,21.67
2018-08-24T22:31:10.800Z,20.57
2018-08-24T22:33:39.492Z,19.37
2018-08-24T22:36:08.600Z,19.20
2018-08-24T22:38:37.384Z,19.93
2018-08-24T22:41:06.791Z,17.80
2018-08-24T22:43:36.478Z,20.13
2018-08-24T22:46:06.416Z,20.47
2018-08-24T22:48:35.579Z,21.83
2018-08-24T22:51:04.867Z,19.87
2018-08-24T22:53:33.572Z,20.50
2018-08-24T22:56:02.558Z,20.40
2018-08-24T22:58:31.280Z,22.03
2018-08-24T23:00:59.987Z,20.57
2018-08-24T23:03:28.791Z,22.30
2018-08-24T23:05:57.695Z,22.13
2018-08-24T23:08:26.593Z,22.13
2018-08-24T23:10:56.131Z,21.63
2018-08-24T23:13:24.997Z,21.87
2018-08-24T23:15:53.719Z,22.10
2018-08-24T23:18:23.195Z,21.27
2018-08-24T23:20:51.920Z,21.63
2018-08-24T23:23:21.473Z,20.63
2018-08-24T23:25:50.286Z,22.43
2018-08-24T23:28:18.984Z,21.67
2018-08-24T23:30:48.467Z,20.93
2018-08-24T23:33:17.174Z,21.90
2018-08-24T23:35:46.736Z,17.87
2018-08-24T23:38:15.584Z,17.10
2018-08-24T23:40:44.343Z,12.80
2018-08-24T23:43:13.070Z,10.40
2018-08-24T23:45:42.346Z,10.37
2018-08-24T23:48:11.274Z,10.57
2018-08-24T23:50:42.681Z,11.67
2018-08-24T23:53:11.512Z,10.93
2018-08-24T23:55:40.217Z,11.37
2018-08-24T23:58:09.293Z,11.20
